Time;durP1;ratioP1;P1;durP2;ratioP2;P2;SDS_P1;SDS_P2;PMS_P1;PMS_P2;Temp;Humidity;BMP_temperature;BMP_pressure;BME280_temperature;BME280_humidity;BME280_pressure;Samples;Min_cycle;Max_cycle;Signal;HPM_P1;HPM_P2
2022/08/16 00:02:07;;;;;;;;;;;;;;;26.14;44.97;98969.94;4375526;32;33285;-84
2022/08/16 00:04:39;;;;;;;;;;;;;;;26.22;44.61;98970.69;4370102;32;33601;-84
2022/08/16 00:07:07;;;;;;;;;;;;;;;26.20;44.83;98978.13;4384616;32;34158;-84
2022/08/16 00:09:36;;;;;;;;;;;;;;;26.33;44.65;98971.22;4362431;32;33548;-84
2022/08/16 00:12:08;;;;;;;;;;;;;;;26.16;45.23;98984.97;4389592;32;34077;-84
2022/08/16 00:14:35;;;;;;;;;;;;;;;26.08;45.44;98979.66;4363465;32;32371;-83
2022/08/16 00:17:03;;;;;;;;;;;;;;;26.09;45.64;98984.03;4377919;32;34327;-83
2022/08/16 00:19:46;;;;;;;;;;;;;;;25.98;45.88;98985.34;4378191;32;33981;-83
2022/08/16 00:22:15;;;;;;;;;;;;;;;26.05;45.58;98980.84;4389203;32;34409;-83
2022/08/16 00:24:46;;;;;;;;;;;;;;;25.79;46.23;98985.88;4379386;32;33278;-83
2022/08/16 00:27:17;;;;;;;;;;;;;;;25.89;46.00;98991.03;4378151;32;34063;-83
2022/08/16 00:29:45;;;;;;;;;;;;;;;25.85;45.88;98985.13;4365870;32;33481;-83
2022/08/16 00:32:13;;;;;;;;;;;;;;;25.88;45.95;98983.94;4377653;32;33988;-84
2022/08/16 00:34:45;;;;;;;;;;;;;;;25.72;46.97;98985.72;4377500;32;33990;-84
2022/08/16 00:37:21;;;;;;;;;;;;;;;25.61;46.98;98983.47;4377780;32;33157;-84
2022/08/16 00:39:51;;;;;;;;;;;;;;;25.65;46.61;98984.78;4377658;32;34136;-84
2022/08/16 00:42:27;;;;;;;;;;;;;;;25.46;47.23;98985.31;4373791;32;34156;-85
2022/08/16 00:44:59;;;;;;;;;;;;;;;25.35;47.57;98985.72;4378025;32;33458;-85
2022/08/16 00:47:29;;;;;;;;;;;;;;;25.38;47.66;98988.06;4378398;32;32824;-84
2022/08/16 00:49:57;;;;;;;;;;;;;;;25.47;47.36;98986.97;4389643;32;33946;-83
2022/08/16 00:52:26;;;;;;;;;;;;;;;25.31;48.35;98990.66;4365383;32;33900;-84
2022/08/16 00:54:57;;;;;;;;;;;;;;;25.26;48.41;98991.22;4389719;32;32035;-83
2022/08/16 00:57:26;;;;;;;;;;;;;;;25.29;48.06;98984.59;4389451;32;32814;-83
2022/08/16 01:00:15;;;;;;;;;;;;;;;25.22;48.08;98998.00;4373894;32;33747;-83
2022/08/16 01:02:46;;;;;;;;;;;;;;;25.26;47.96;98996.63;4386992;32;33843;-83
2022/08/16 01:05:15;;;;;;;;;;;;;;;25.12;48.21;99000.09;4365261;32;31173;-83
2022/08/16 01:07:56;;;;;;;;;;;;;;;25.37;47.60;98994.50;4361093;32;32978;-83
2022/08/16 01:10:32;;;;;;;;;;;;;;;25.31;47.92;98997.94;4369072;32;33303;-83
2022/08/16 01:13:03;;;;;;;;;;;;;;;24.84;49.05;99012.41;4383891;32;35209;-84
2022/08/16 01:15:33;;;;;;;;;;;;;;;24.83;48.99;99010.69;4373109;32;32170;-84
2022/08/16 01:18:01;;;;;;;;;;;;;;;24.60;49.70;99006.12;4374910;32;33992;-84
2022/08/16 01:20:30;;;;;;;;;;;;;;;24.49;49.88;99006.47;4377798;32;33469;-85
2022/08/16 01:23:07;;;;;;;;;;;;;;;24.64;49.54;99002.06;4373019;32;34728;-84
2022/08/16 01:25:36;;;;;;;;;;;;;;;24.56;49.91;99006.62;4373359;32;32664;-83
2022/08/16 01:28:06;;;;;;;;;;;;;;;24.60;49.96;99003.41;4375650;32;34888;-84
2022/08/16 01:30:37;;;;;;;;;;;;;;;24.72;49.40;99003.84;4356057;32;33049;-84
2022/08/16 01:33:08;;;;;;;;;;;;;;;24.70;49.46;99001.34;4371842;32;34258;-83
2022/08/16 01:36:02;;;;;;;;;;;;;;;24.65;49.59;99002.87;4370137;32;32533;-83
2022/08/16 01:38:40;;;;;;;;;;;;;;;24.52;49.86;98992.66;4369394;32;32950;-84
2022/08/16 01:41:17;;;;;;;;;;;;;;;24.52;50.00;98998.88;4366062;32;33757;-83
2022/08/16 01:43:47;;;;;;;;;;;;;;;24.48;50.27;98999.41;4370659;32;33262;-82
2022/08/16 01:46:34;;;;;;;;;;;;;;;24.60;50.00;99000.72;4377363;32;32956;-84
2022/08/16 01:49:11;;;;;;;;;;;;;;;24.51;50.08;99004.47;4376876;32;34202;-83
2022/08/16 01:51:41;;;;;;;;;;;;;;;24.41;50.22;99001.97;4369208;32;32838;-83
2022/08/16 01:54:11;;;;;;;;;;;;;;;24.34;50.42;98997.41;4369946;32;33794;-83
2022/08/16 01:56:43;;;;;;;;;;;;;;;24.40;50.27;98999.44;4377575;32;33100;-84
2022/08/16 01:59:13;;;;;;;;;;;;;;;24.31;50.43;99000.44;4377458;32;33826;-83
2022/08/16 02:01:44;;;;;;;;;;;;;;;24.30;50.30;98996.06;4386010;32;34256;-83
2022/08/16 02:04:19;;;;;;;;;;;;;;;24.36;49.96;98998.09;4377955;32;34782;-83
2022/08/16 02:07:11;;;;;;;;;;;;;;;24.32;50.15;98999.47;4373993;32;32558;-82
2022/08/16 02:09:39;;;;;;;;;;;;;;;24.22;50.47;99003.19;4372059;32;34155;-83
2022/08/16 02:12:08;;;;;;;;;;;;;;;24.19;50.65;99008.94;4377404;32;34177;-83
2022/08/16 02:14:56;;;;;;;;;;;;;;;24.01;50.73;99009.13;4371017;32;33114;-83
2022/08/16 02:17:27;;;;;;;;;;;;;;;23.63;52.42;99004.47;4371502;32;33841;-83
2022/08/16 02:19:55;;;;;;;;;;;;;;;23.66;52.43;99007.69;4370498;32;33494;-83
2022/08/16 02:22:27;;;;;;;;;;;;;;;23.77;51.97;98999.25;4367409;32;33721;-83
2022/08/16 02:25:18;;;;;;;;;;;;;;;23.80;51.95;98997.22;4372189;32;33815;-83
2022/08/16 02:27:46;;;;;;;;;;;;;;;23.79;51.81;98995.56;4354950;32;32256;-83
2022/08/16 02:30:20;;;;;;;;;;;;;;;23.84;51.78;99003.97;4367212;32;34299;-83
2022/08/16 02:33:09;;;;;;;;;;;;;;;23.79;51.68;98996.41;4387337;32;34155;-83
2022/08/16 02:35:36;;;;;;;;;;;;;;;23.79;51.47;99003.66;4373731;32;33702;-83
2022/08/16 02:38:25;;;;;;;;;;;;;;;23.72;51.68;99001.59;4376482;32;32580;-83
2022/08/16 02:40:53;;;;;;;;;;;;;;;23.46;52.93;99000.94;4376412;32;34048;-84
2022/08/16 02:43:22;;;;;;;;;;;;;;;23.40;52.63;98997.03;4368112;32;32829;-84
2022/08/16 02:45:55;;;;;;;;;;;;;;;23.51;52.55;99004.81;4370500;32;32731;-84
2022/08/16 02:48:24;;;;;;;;;;;;;;;23.50;52.75;98991.53;4366674;32;33494;-83
2022/08/16 02:50:59;;;;;;;;;;;;;;;23.50;52.32;99002.28;4371498;32;33105;-84
2022/08/16 02:53:40;;;;;;;;;;;;;;;23.57;51.80;98989.81;4373915;32;32958;-83
2022/08/16 02:56:14;;;;;;;;;;;;;;;23.64;51.56;98990.88;4371840;32;34056;-81
2022/08/16 02:58:44;;;;;;;;;;;;;;;23.59;51.85;98990.47;4373009;32;32117;-82
2022/08/16 03:01:12;;;;;;;;;;;;;;;23.70;51.51;98994.72;4353292;32;33664;-82
2022/08/16 03:04:01;;;;;;;;;;;;;;;23.70;51.42;98992.88;4383676;32;33241;-83
2022/08/16 03:06:50;;;;;;;;;;;;;;;23.64;51.39;98998.94;4366162;32;33452;-83
2022/08/16 03:09:24;;;;;;;;;;;;;;;23.63;51.63;98996.38;4373080;32;32803;-83
2022/08/16 03:11:55;;;;;;;;;;;;;;;23.71;51.28;98994.53;4370743;32;33762;-83
2022/08/16 03:14:25;;;;;;;;;;;;;;;23.49;51.92;99000.59;4375482;32;33197;-83
2022/08/16 03:16:54;;;;;;;;;;;;;;;23.32;52.55;98998.94;4376985;32;34228;-83
2022/08/16 03:19:29;;;;;;;;;;;;;;;23.39;52.35;98995.37;4373683;32;32181;-83
2022/08/16 03:22:18;;;;;;;;;;;;;;;23.44;52.17;98998.41;4365646;32;32414;-83
2022/08/16 03:24:56;;;;;;;;;;;;;;;23.29;52.74;98999.25;4369681;32;34009;-84
2022/08/16 03:27:27;;;;;;;;;;;;;;;23.09;53.37;99010.34;4369809;32;34149;-85
2022/08/16 03:30:08;;;;;;;;;;;;;;;23.20;52.86;99009.16;4390676;32;33299;-84
2022/08/16 03:32:45;;;;;;;;;;;;;;;23.22;53.08;99012.56;4376086;32;33098;-85
2022/08/16 03:35:15;;;;;;;;;;;;;;;23.24;53.08;99019.44;4385384;32;34952;-84
2022/08/16 03:37:45;;;;;;;;;;;;;;;23.08;54.55;99030.19;4372379;32;34069;-84
2022/08/16 03:40:34;;;;;;;;;;;;;;;23.03;54.28;99032.56;4371816;32;32831;-85
2022/08/16 03:43:04;;;;;;;;;;;;;;;23.00;54.17;99032.87;4366050;32;33308;-84
2022/08/16 03:45:49;;;;;;;;;;;;;;;23.12;53.71;99034.25;4371726;32;33142;-84
2022/08/16 03:48:22;;;;;;;;;;;;;;;23.15;53.91;99035.75;4377243;32;33790;-84
2022/08/16 03:51:07;;;;;;;;;;;;;;;22.98;54.53;99038.44;4375791;32;32457;-84
2022/08/16 03:53:36;;;;;;;;;;;;;;;22.89;54.27;99036.72;4366442;32;34213;-84
2022/08/16 03:56:06;;;;;;;;;;;;;;;23.05;53.72;99041.28;4373063;32;34234;-84
2022/08/16 03:58:39;;;;;;;;;;;;;;;23.21;53.19;99035.09;4366623;32;33397;-83
2022/08/16 04:01:11;;;;;;;;;;;;;;;23.11;54.31;99046.00;4376024;32;32200;-83
2022/08/16 04:03:39;;;;;;;;;;;;;;;23.20;54.17;99044.19;4387928;32;35025;-84
2022/08/16 04:06:08;;;;;;;;;;;;;;;23.20;53.97;99045.03;4367148;32;32971;-83
2022/08/16 04:08:36;;;;;;;;;;;;;;;23.48;52.89;99045.56;4380383;32;34173;-83
2022/08/16 04:11:06;;;;;;;;;;;;;;;23.43;53.03;99044.38;4365161;32;32194;-84
2022/08/16 04:13:36;;;;;;;;;;;;;;;23.27;53.66;99039.00;4378256;32;34250;-84
2022/08/16 04:16:24;;;;;;;;;;;;;;;23.06;54.22;99045.66;4375160;32;34663;-83
2022/08/16 04:18:57;;;;;;;;;;;;;;;23.24;54.11;99046.38;4380354;32;32685;-83
2022/08/16 04:21:33;;;;;;;;;;;;;;;23.37;53.80;99045.06;4380202;32;32774;-83
2022/08/16 04:24:05;;;;;;;;;;;;;;;23.31;54.12;99053.78;4379354;32;33820;-83
2022/08/16 04:26:35;;;;;;;;;;;;;;;23.46;54.33;99046.75;4378064;32;32928;-84
2022/08/16 04:29:14;;;;;;;;;;;;;;;23.49;54.39;99046.38;4381846;32;33727;-84
2022/08/16 04:31:53;;;;;;;;;;;;;;;23.44;54.79;99048.75;4380035;32;33067;-83
2022/08/16 04:34:28;;;;;;;;;;;;;;;23.57;54.41;99051.78;4379351;32;34055;-84
2022/08/16 04:37:00;;;;;;;;;;;;;;;23.72;53.65;99047.44;4379766;32;33787;-83
2022/08/16 04:39:29;;;;;;;;;;;;;;;23.94;52.29;99043.22;4392209;32;33820;-83
2022/08/16 04:42:16;;;;;;;;;;;;;;;23.95;52.62;99046.75;4378863;32;32329;-83
2022/08/16 04:44:46;;;;;;;;;;;;;;;23.96;53.87;99051.13;4392771;32;33639;-83
2022/08/16 04:47:24;;;;;;;;;;;;;;;24.08;53.81;99055.16;4368553;32;34053;-84
2022/08/16 04:49:58;;;;;;;;;;;;;;;24.35;51.39;99061.16;4391728;32;33618;-84
2022/08/16 04:52:26;;;;;;;;;;;;;;;24.55;49.96;99067.88;4392354;32;33684;-84
2022/08/16 04:55:18;;;;;;;;;;;;;;;24.50;50.49;99056.75;4390793;32;33413;-84
2022/08/16 04:57:59;;;;;;;;;;;;;;;24.63;50.02;99051.62;4393309;32;34790;-84
2022/08/16 05:00:32;;;;;;;;;;;;;;;24.46;50.46;99053.56;4378077;32;32822;-84
2022/08/16 05:03:05;;;;;;;;;;;;;;;24.48;50.58;99056.09;4380860;32;33375;-84
2022/08/16 05:06:01;;;;;;;;;;;;;;;24.57;49.98;99060.44;4392629;32;34503;-84
2022/08/16 05:08:34;;;;;;;;;;;;;;;24.44;50.50;99065.53;4367191;32;32796;-84
2022/08/16 05:11:05;;;;;;;;;;;;;;;24.53;51.10;99064.50;4380121;32;32976;-84
2022/08/16 05:13:39;;;;;;;;;;;;;;;24.87;50.88;99066.03;4374634;32;31922;-84
2022/08/16 05:16:11;;;;;;;;;;;;;;;24.96;49.79;99063.13;4392370;32;32909;-84
2022/08/16 05:18:51;;;;;;;;;;;;;;;24.85;50.02;99081.59;4381446;32;33820;-84
2022/08/16 05:21:20;;;;;;;;;;;;;;;24.91;49.34;99084.41;4368030;32;33415;-85
2022/08/16 05:23:51;;;;;;;;;;;;;;;24.94;49.53;99089.47;4379479;32;33776;-84
2022/08/16 05:26:29;;;;;;;;;;;;;;;25.01;49.25;99092.28;4380924;32;34208;-83
2022/08/16 05:29:05;;;;;;;;;;;;;;;24.98;49.07;99089.97;4392736;32;35895;-84
2022/08/16 05:31:38;;;;;;;;;;;;;;;25.04;48.67;99081.97;4389245;32;34864;-84
2022/08/16 05:34:20;;;;;;;;;;;;;;;24.93;48.88;99087.78;4392312;32;33381;-84
2022/08/16 05:36:49;;;;;;;;;;;;;;;24.94;49.26;99096.72;4367912;32;34148;-83
2022/08/16 05:39:22;;;;;;;;;;;;;;;24.98;49.36;99095.38;4365270;32;33030;-83
2022/08/16 05:41:52;;;;;;;;;;;;;;;25.15;49.44;99094.28;4380356;32;33984;-84
2022/08/16 05:44:22;;;;;;;;;;;;;;;25.28;49.29;99091.84;4377264;32;33136;-83
2022/08/16 05:46:54;;;;;;;;;;;;;;;25.32;49.13;99097.72;4375613;32;33274;-84
2022/08/16 05:49:27;;;;;;;;;;;;;;;25.39;49.08;99092.44;4372376;32;34138;-83
2022/08/16 05:52:08;;;;;;;;;;;;;;;25.39;48.24;99095.13;4377531;32;33825;-84
2022/08/16 05:54:42;;;;;;;;;;;;;;;25.72;46.84;99083.06;4379967;32;33051;-84
2022/08/16 05:57:26;;;;;;;;;;;;;;;25.98;46.65;99092.69;4381444;32;34564;-84
2022/08/16 06:00:04;;;;;;;;;;;;;;;25.71;47.11;99083.25;4368394;32;33685;-84
2022/08/16 06:02:40;;;;;;;;;;;;;;;25.64;47.27;99080.44;4380757;32;34218;-84
2022/08/16 06:05:12;;;;;;;;;;;;;;;25.86;47.22;99088.72;4379686;32;32260;-83
2022/08/16 06:07:44;;;;;;;;;;;;;;;25.67;49.03;99090.03;4378873;32;32758;-84
2022/08/16 06:10:27;;;;;;;;;;;;;;;25.63;48.05;99089.56;4379390;32;33985;-84
2022/08/16 06:13:01;;;;;;;;;;;;;;;25.68;48.24;99083.59;4380042;32;33578;-87
2022/08/16 06:15:31;;;;;;;;;;;;;;;26.04;47.31;99081.97;4380511;32;33997;-86
2022/08/16 06:18:02;;;;;;;;;;;;;;;25.95;48.17;99083.06;4392783;32;34751;-86
2022/08/16 06:20:31;;;;;;;;;;;;;;;25.70;48.82;99084.28;4392416;32;34328;-83
2022/08/16 06:23:03;;;;;;;;;;;;;;;25.79;48.66;99078.66;4367881;32;33755;-85
2022/08/16 06:25:47;;;;;;;;;;;;;;;25.82;49.47;99076.59;4377913;32;33814;-86
2022/08/16 06:28:20;;;;;;;;;;;;;;;26.13;49.19;99079.19;4379801;32;33393;-85
2022/08/16 06:31:05;;;;;;;;;;;;;;;25.74;49.96;99069.38;4381991;32;34154;-85
2022/08/16 06:33:39;;;;;;;;;;;;;;;25.84;49.89;99070.00;4368012;32;33504;-85
2022/08/16 06:36:10;;;;;;;;;;;;;;;25.92;49.46;99071.78;4378426;32;33260;-87
2022/08/16 06:38:41;;;;;;;;;;;;;;;25.82;51.21;99065.78;4370617;32;33622;-87
2022/08/16 06:41:26;;;;;;;;;;;;;;;26.04;50.27;99054.09;4385388;32;34019;-86
2022/08/16 06:43:56;;;;;;;;;;;;;;;25.98;51.66;99055.66;4365212;32;34331;-87
2022/08/16 06:46:34;;;;;;;;;;;;;;;25.87;50.08;99047.13;4377863;32;32624;-86
2022/08/16 06:49:13;;;;;;;;;;;;;;;26.25;43.92;99043.38;4364561;32;33996;-87
2022/08/16 06:51:41;;;;;;;;;;;;;;;26.22;40.71;99035.63;4389938;32;33405;-86
2022/08/16 06:54:16;;;;;;;;;;;;;;;26.72;40.71;99028.62;4378022;32;34197;-87
2022/08/16 06:56:45;;;;;;;;;;;;;;;27.14;40.71;99037.88;4376054;32;33994;-86
2022/08/16 06:59:13;;;;;;;;;;;;;;;27.42;39.89;99039.84;4364185;32;32878;-86
2022/08/16 07:01:50;;;;;;;;;;;;;;;27.17;43.53;99045.66;4376993;32;33775;-86
2022/08/16 07:04:26;;;;;;;;;;;;;;;27.04;43.41;99051.72;4378201;32;33975;-86
2022/08/16 07:07:01;;;;;;;;;;;;;;;27.24;42.29;99051.97;4373370;32;33425;-86
2022/08/16 07:09:32;;;;;;;;;;;;;;;27.64;41.41;99056.97;4371453;32;34494;-86
2022/08/16 07:12:13;;;;;;;;;;;;;;;27.60;42.66;99070.06;4361307;32;32902;-86
2022/08/16 07:14:43;;;;;;;;;;;;;;;27.97;42.03;99068.12;4373450;32;33284;-86
2022/08/16 07:17:14;;;;;;;;;;;;;;;27.70;41.49;99076.00;4370322;32;32008;-86
2022/08/16 07:19:43;;;;;;;;;;;;;;;27.83;42.11;99079.91;4369963;32;33080;-86
2022/08/16 07:22:33;;;;;;;;;;;;;;;27.48;46.03;99093.28;4380162;32;34343;-86
2022/08/16 07:25:12;;;;;;;;;;;;;;;27.00;49.25;99103.75;4385334;32;35082;-87
2022/08/16 07:30:21;;;;;;;;;;;;;;;26.40;51.98;99105.66;4371783;32;34898;-86
2022/08/16 07:33:16;;;;;;;;;;;;;;;26.03;53.25;99106.50;4382638;32;34791;-86
2022/08/16 07:36:05;;;;;;;;;;;;;;;26.26;52.50;99107.31;4362150;32;32954;-87
2022/08/16 07:38:35;;;;;;;;;;;;;;;26.68;51.97;99116.69;4359464;32;32548;-86
2022/08/16 07:41:04;;;;;;;;;;;;;;;26.53;52.20;99118.53;4363035;32;32839;-87
2022/08/16 07:43:45;;;;;;;;;;;;;;;26.52;51.76;99123.13;4372640;32;35122;-86
2022/08/16 07:46:14;;;;;;;;;;;;;;;26.48;51.45;99121.81;4372214;32;32129;-86
2022/08/16 07:49:13;;;;;;;;;;;;;;;26.72;51.03;99115.28;4381645;32;34147;-87
2022/08/16 07:51:51;;;;;;;;;;;;;;;27.00;50.94;99122.72;4382428;32;34877;-86
2022/08/16 07:54:25;;;;;;;;;;;;;;;27.14;50.53;99121.06;4372861;32;33541;-86
2022/08/16 07:56:59;;;;;;;;;;;;;;;27.05;50.76;99118.41;4369949;32;33075;-86
2022/08/16 07:59:31;;;;;;;;;;;;;;;26.96;49.86;99121.41;4362999;32;32195;-86
2022/08/16 08:02:13;;;;;;;;;;;;;;;27.34;48.75;99121.28;4372841;32;33092;-86
2022/08/16 08:04:50;;;;;;;;;;;;;;;27.43;48.87;99120.97;4368944;32;32824;-86
2022/08/16 08:07:19;;;;;;;;;;;;;;;26.90;47.95;99119.47;4385740;32;33124;-86
2022/08/16 08:09:58;;;;;;;;;;;;;;;27.15;47.83;99122.72;4381379;32;34058;-86
2022/08/16 08:12:32;;;;;;;;;;;;;;;27.37;47.91;99126.34;4371771;32;34119;-86
2022/08/16 08:15:07;;;;;;;;;;;;;;;27.22;48.03;99127.22;4372804;32;32392;-86
2022/08/16 08:17:38;;;;;;;;;;;;;;;27.76;47.88;99118.63;4377036;32;34415;-86
2022/08/16 08:20:27;;;;;;;;;;;;;;;27.39;46.74;99125.09;4366428;32;32480;-86
2022/08/16 08:22:57;;;;;;;;;;;;;;;27.51;47.19;99128.16;4369173;32;34951;-86
2022/08/16 08:25:33;;;;;;;;;;;;;;;27.74;47.08;99134.28;4373885;32;34688;-86
2022/08/16 08:28:23;;;;;;;;;;;;;;;27.88;46.97;99134.41;4356704;32;32669;-86
2022/08/16 08:30:55;;;;;;;;;;;;;;;28.44;46.00;99129.88;4375119;32;32132;-86
2022/08/16 08:33:30;;;;;;;;;;;;;;;28.44;43.48;99134.44;4368166;32;33936;-86
2022/08/16 08:36:06;;;;;;;;;;;;;;;28.77;42.78;99135.53;4364494;32;33143;-86
2022/08/16 08:38:34;;;;;;;;;;;;;;;29.06;40.91;99139.06;4360837;32;34069;-86
2022/08/16 08:41:14;;;;;;;;;;;;;;;28.75;40.95;99131.31;4382222;32;33477;-86
2022/08/16 08:46:22;;;;;;;;;;;;;;;29.92;38.62;99127.59;4372033;32;34058;-86
2022/08/16 08:48:52;;;;;;;;;;;;;;;30.15;37.73;99117.16;4361017;32;32565;-86
2022/08/16 08:51:29;;;;;;;;;;;;;;;30.32;36.18;99118.38;4370819;32;34012;-86
2022/08/16 08:54:04;;;;;;;;;;;;;;;30.00;36.96;99119.19;4373389;32;35035;-85
2022/08/16 08:56:36;;;;;;;;;;;;;;;30.51;38.41;99111.22;4363252;32;34142;-86
2022/08/16 08:59:13;;;;;;;;;;;;;;;30.77;35.91;99110.38;4358402;32;34194;-85
2022/08/16 09:01:51;;;;;;;;;;;;;;;30.70;37.99;99114.97;4377708;32;33420;-85
2022/08/16 09:04:27;;;;;;;;;;;;;;;31.06;36.65;99114.47;4366267;32;32914;-85
2022/08/16 09:06:57;;;;;;;;;;;;;;;31.41;36.23;99111.38;4372067;32;33210;-85
2022/08/16 09:09:36;;;;;;;;;;;;;;;31.71;35.37;99114.31;4365221;32;32842;-85
2022/08/16 09:12:30;;;;;;;;;;;;;;;31.82;37.07;99105.47;4367702;32;34251;-85
2022/08/16 09:15:42;;;;;;;;;;;;;;;31.98;35.33;99100.53;4372546;32;34981;-85
2022/08/16 09:18:29;;;;;;;;;;;;;;;32.29;35.08;99097.72;4365238;32;32566;-86
2022/08/16 09:21:15;;;;;;;;;;;;;;;32.48;34.69;99092.34;4373494;32;33903;-85
2022/08/16 09:23:44;;;;;;;;;;;;;;;32.73;34.87;99087.63;4370536;32;34164;-84
2022/08/16 09:26:17;;;;;;;;;;;;;;;32.88;35.41;99089.97;4384052;32;32841;-85
2022/08/16 09:29:06;;;;;;;;;;;;;;;33.25;30.67;99068.06;4377652;32;35119;-85
2022/08/16 09:31:52;;;;;;;;;;;;;;;33.03;30.45;99078.66;4385189;32;33422;-84
2022/08/16 09:34:22;;;;;;;;;;;;;;;33.55;30.52;99065.34;4370055;32;33192;-84
2022/08/16 09:36:51;;;;;;;;;;;;;;;33.94;27.68;99060.28;4370547;32;33423;-84
2022/08/16 09:39:21;;;;;;;;;;;;;;;34.24;27.34;99066.53;4352197;32;33344;-84
2022/08/16 09:41:51;;;;;;;;;;;;;;;34.08;26.67;99068.06;4376873;32;32677;-85
2022/08/16 09:44:23;;;;;;;;;;;;;;;34.38;27.23;99065.22;4382970;32;33064;-85
2022/08/16 09:47:12;;;;;;;;;;;;;;;34.47;27.73;99064.88;4370060;32;33775;-85
2022/08/16 09:49:41;;;;;;;;;;;;;;;34.80;26.94;99065.06;4375296;32;33334;-85
2022/08/16 09:52:21;;;;;;;;;;;;;;;35.03;26.20;99069.66;4377433;32;32703;-84
2022/08/16 09:54:54;;;;;;;;;;;;;;;35.01;26.92;99066.34;4374311;32;33971;-85
2022/08/16 09:57:26;;;;;;;;;;;;;;;35.35;26.76;99053.53;4362754;32;32601;-85
2022/08/16 10:00:09;;;;;;;;;;;;;;;35.62;26.30;99058.47;4386936;32;33999;-86
2022/08/16 10:02:58;;;;;;;;;;;;;;;35.69;25.98;99058.28;4356573;32;33316;-84
2022/08/16 10:05:29;;;;;;;;;;;;;;;35.79;25.59;99055.72;4376418;32;33332;-84
2022/08/16 10:08:01;;;;;;;;;;;;;;;35.88;25.14;99049.53;4388700;32;32573;-84
2022/08/16 10:13:42;;;;;;;;;;;;;;;35.84;23.89;99045.63;4387472;32;31967;-84
2022/08/16 10:16:17;;;;;;;;;;;;;;;35.54;25.32;99042.38;4375578;32;33753;-84
2022/08/16 10:18:50;;;;;;;;;;;;;;;35.72;24.66;99039.41;4388595;32;33937;-84
2022/08/16 10:21:35;;;;;;;;;;;;;;;35.78;24.70;99038.41;4363768;32;33214;-85
2022/08/16 10:24:06;;;;;;;;;;;;;;;36.00;24.53;99045.94;4364139;32;34011;-84
2022/08/16 10:26:35;;;;;;;;;;;;;;;36.02;22.88;99041.81;4372462;32;32965;-84
2022/08/16 10:29:27;;;;;;;;;;;;;;;36.11;21.87;99037.56;4383302;32;32900;-84
2022/08/16 10:32:19;;;;;;;;;;;;;;;36.49;23.29;99035.13;4371255;32;34660;-84
2022/08/16 10:34:48;;;;;;;;;;;;;;;36.48;23.28;99036.22;4388332;32;34383;-85
2022/08/16 10:37:21;;;;;;;;;;;;;;;36.30;23.90;99038.13;4372510;32;33118;-84
2022/08/16 10:40:09;;;;;;;;;;;;;;;36.72;23.70;99037.62;4383060;32;33992;-84
2022/08/16 10:43:04;;;;;;;;;;;;;;;36.56;22.83;99030.28;4384403;32;35080;-85
2022/08/16 10:45:43;;;;;;;;;;;;;;;36.56;21.31;99024.78;4370851;32;34125;-84
2022/08/16 10:48:28;;;;;;;;;;;;;;;36.84;22.28;99038.34;4373732;32;33439;-85
2022/08/16 10:51:00;;;;;;;;;;;;;;;36.97;22.30;99028.03;4361637;32;34457;-84
2022/08/16 10:53:30;;;;;;;;;;;;;;;37.49;21.54;99033.84;4376487;32;33577;-84
2022/08/16 10:56:05;;;;;;;;;;;;;;;37.61;20.02;99025.41;4383386;32;33097;-85
2022/08/16 10:58:56;;;;;;;;;;;;;;;36.88;21.65;99028.44;4367262;32;33612;-86
2022/08/16 11:01:47;;;;;;;;;;;;;;;37.29;24.26;99020.69;4373939;32;34987;-85
2022/08/16 11:04:37;;;;;;;;;;;;;;;37.33;22.16;99021.00;4386112;32;34314;-84
2022/08/16 11:07:25;;;;;;;;;;;;;;;37.19;20.69;99012.31;4375458;32;32764;-84
2022/08/16 11:10:15;;;;;;;;;;;;;;;37.55;22.46;99013.50;4387174;32;33085;-84
2022/08/16 11:13:07;;;;;;;;;;;;;;;37.90;20.84;99010.25;4376740;32;33966;-85
2022/08/16 11:15:56;;;;;;;;;;;;;;;37.85;20.57;99007.47;4364095;32;35094;-85
2022/08/16 11:21:24;;;;;;;;;;;;;;;37.80;20.50;99021.16;4382503;32;32885;-86
2022/08/16 11:24:03;;;;;;;;;;;;;;;37.30;21.17;99005.81;4371624;32;34181;-85
2022/08/16 11:26:53;;;;;;;;;;;;;;;37.23;21.56;98999.72;4361207;32;34350;-85
2022/08/16 11:29:43;;;;;;;;;;;;;;;37.70;22.75;99003.69;4369193;32;33980;-85
2022/08/16 11:32:14;;;;;;;;;;;;;;;38.36;20.88;99013.31;4368062;32;32906;-85
2022/08/16 11:37:47;;;;;;;;;;;;;;;38.71;19.41;99022.84;4379159;32;34647;-85
2022/08/16 11:43:34;;;;;;;;;;;;;;;36.91;23.14;99033.47;4387902;32;34895;-85
2022/08/16 11:46:10;;;;;;;;;;;;;;;35.76;24.21;99043.31;4385534;32;32773;-85
2022/08/16 11:49:03;;;;;;;;;;;;;;;34.95;23.98;99055.50;4384840;32;32977;-86
2022/08/16 11:51:38;;;;;;;;;;;;;;;34.28;25.79;99051.28;4370081;32;33702;-85
2022/08/16 11:54:14;;;;;;;;;;;;;;;34.37;25.48;99044.38;4376973;32;34389;-86
2022/08/16 11:56:52;;;;;;;;;;;;;;;34.38;26.11;99046.03;4389987;32;34057;-86
2022/08/16 11:59:28;;;;;;;;;;;;;;;34.53;25.95;99050.22;4378093;32;33663;-86
2022/08/16 12:02:05;;;;;;;;;;;;;;;34.32;25.53;99052.47;4389932;32;34231;-86
2022/08/16 12:04:54;;;;;;;;;;;;;;;34.42;25.92;99046.38;4381159;32;33108;-86
2022/08/16 12:07:23;;;;;;;;;;;;;;;34.11;26.36;99037.47;4373262;32;33856;-85
2022/08/16 12:09:56;;;;;;;;;;;;;;;34.24;26.73;99039.13;4378565;32;34990;-86
2022/08/16 12:12:24;;;;;;;;;;;;;;;34.92;26.87;99040.34;4390934;32;33795;-86
2022/08/16 12:14:59;;;;;;;;;;;;;;;35.54;24.43;99039.63;4369617;32;33038;-86
2022/08/16 12:17:29;;;;;;;;;;;;;;;35.95;24.08;99026.63;4390358;32;33304;-86
2022/08/16 12:20:00;;;;;;;;;;;;;;;35.87;24.07;99027.81;4363520;32;34068;-85
2022/08/16 12:22:31;;;;;;;;;;;;;;;36.24;22.37;99016.31;4357219;32;33087;-86
2022/08/16 12:25:11;;;;;;;;;;;;;;;36.28;22.41;99017.50;4367943;32;33114;-86
2022/08/16 12:27:43;;;;;;;;;;;;;;;36.46;22.87;99006.19;4382573;32;34881;-86
2022/08/16 12:30:24;;;;;;;;;;;;;;;36.62;23.02;99016.31;4378305;32;34280;-86
2022/08/16 12:33:00;;;;;;;;;;;;;;;36.52;22.99;99013.44;4378339;32;34489;-86
2022/08/16 12:35:34;;;;;;;;;;;;;;;36.49;23.61;99010.37;4355424;32;32117;-86
2022/08/16 12:38:04;;;;;;;;;;;;;;;36.26;25.04;99012.22;4393292;32;34160;-86
2022/08/16 12:40:57;;;;;;;;;;;;;;;35.91;25.81;99029.81;4388133;32;34232;-86
2022/08/16 12:43:24;;;;;;;;;;;;;;;35.40;25.96;99042.66;4384466;32;34200;-86
2022/08/16 12:46:00;;;;;;;;;;;;;;;35.14;24.98;99054.25;4378802;32;33465;-86
2022/08/16 12:51:28;;;;;;;;;;;;;;;34.68;25.50;99053.28;4378324;32;34150;-86
2022/08/16 12:54:16;;;;;;;;;;;;;;;34.44;25.73;99048.87;4379295;32;34165;-86
2022/08/16 12:56:49;;;;;;;;;;;;;;;34.12;26.52;99050.09;4378175;32;34219;-86
2022/08/16 12:59:21;;;;;;;;;;;;;;;34.24;26.18;99047.34;4378206;32;34052;-86
2022/08/16 13:01:51;;;;;;;;;;;;;;;34.29;26.35;99042.00;4378163;32;34273;-86
2022/08/16 13:04:31;;;;;;;;;;;;;;;34.31;26.29;99039.84;4367004;32;33702;-86
2022/08/16 13:07:07;;;;;;;;;;;;;;;34.27;26.08;99033.16;4366278;32;34089;-86
2022/08/16 13:09:57;;;;;;;;;;;;;;;34.14;26.34;99036.16;4378100;32;34944;-86
2022/08/16 13:12:27;;;;;;;;;;;;;;;34.53;25.96;99037.34;4378191;32;34691;-86
2022/08/16 13:14:57;;;;;;;;;;;;;;;34.46;25.81;99030.31;4386088;32;34204;-89
2022/08/16 13:17:24;;;;;;;;;;;;;;;34.46;26.69;99031.16;4385672;32;33412;-84
2022/08/16 13:19:59;;;;;;;;;;;;;;;34.58;25.63;99020.19;4379249;32;34212;-84
2022/08/16 13:22:37;;;;;;;;;;;;;;;34.49;25.59;99014.22;4379017;32;35069;-84
2022/08/16 13:25:13;;;;;;;;;;;;;;;34.58;25.07;99017.44;4377934;32;34073;-85
2022/08/16 13:27:48;;;;;;;;;;;;;;;34.40;25.34;99016.47;4353739;32;33185;-84
2022/08/16 13:30:33;;;;;;;;;;;;;;;34.17;26.32;99015.66;4374987;32;34122;-84
2022/08/16 13:33:08;;;;;;;;;;;;;;;34.36;26.03;99018.03;4365971;32;33174;-84
2022/08/16 13:35:42;;;;;;;;;;;;;;;34.39;25.79;99017.56;4389382;32;33978;-84
2022/08/16 13:38:12;;;;;;;;;;;;;;;34.35;25.52;99013.62;4384506;32;33185;-84
2022/08/16 13:40:53;;;;;;;;;;;;;;;34.46;24.94;99019.34;4377205;32;34121;-84
2022/08/16 13:43:26;;;;;;;;;;;;;;;34.68;24.98;99020.38;4378925;32;34728;-84
2022/08/16 13:46:00;;;;;;;;;;;;;;;34.37;24.73;99016.97;4377678;32;34567;-84
2022/08/16 13:48:33;;;;;;;;;;;;;;;35.01;25.95;99021.62;4387643;32;32166;-84
2022/08/16 13:51:17;;;;;;;;;;;;;;;34.64;25.89;99016.44;4389177;32;34116;-84
2022/08/16 13:56:32;;;;;;;;;;;;;;;35.13;28.61;99008.66;4389518;32;32866;-85